Funk Island Bank: Past 24 Hour Conditions

 

St. Anthony Airport

01:30 PM NST 28 November 2014
This table is a summary of hourly weather conditions for the past 24 hours.
Date / Time
(NST)
Wind(knots) Conditions Visibility(km) Pressure(kPa) Air tempC) Relative humidity(%) Dew pointC) Wind Chill
28 November 2014
13:30 NNW 8 Mainly Sunny 16 101.2 -5 71 -9 -10
12:30 NNW 9 Cloudy 16 101.3 -5 74 -9 -11
11:30 NNW 12 Cloudy 16 101.3 -6 75 -9 -13
10:30 NNW 10 gust 16 Cloudy 16 101.3 -6 75 -10 -12
9:30 NNW 14 gust 20 Cloudy 16 101.2 -6 77 -10 -14
8:30 NNW 16 Cloudy 16 101.1 -7 80 -10 -15
7:30 NNW 17 gust 23 Light Snow 16 101.0 -7 81 -9 -15
6:30 NNW 17 gust 25 Cloudy 16 100.9 -7 81 -9 -15
5:30 NW 19 gust 26 Cloudy 16 100.8 -6 83 -8 -15
4:30 NNW 21 gust 28 Light Snow 10 100.7 -6 82 -8 -15
3:30 NNW 23 gust 30 Light Snow 6 100.6 -5 83 -8 -15
2:30 N 23 gust 31 Light Snow 8 100.5 -5 84 -7 -14
1:30 NNW 23 gust 34 Light Snow 3 100.3 -5 85 -7 -14
0:30 N 24 gust 31 Light Snow 4 100.3 -4 90 -6 -14
27 November 2014
23:30 N 22 gust 30 Light Snow 2 100.2 -4 92 -5 -13
22:30 N 24 gust 32 Light Snow 2 100.2 -4 92 -5 -13
21:30 N 26 gust 32 Light Snow 1 100.1 -3 94 -4 -13
20:30 NNE 26 gust 39 Light Snow 1 100.1 -4 94 -4 -13
19:30 N 26 gust 36 Light Snow 2 100.1 -4 93 -5 -13
18:30 NNE 28 gust 34 Light Snow 2 100.2 -3 93 -4 -13
17:30 NNE 23 gust 34 Snow 0.8 100.3 -3 96 -3 -11
16:30 NNE 22 gust 31 Snow 0.6 100.4 -3 96 -3 -11
15:30 NNE 20 gust 27 Light Snow 1 100.4 -2 96 -3 -10
14:30 NE 19 gust 24 Light Snow 3 100.6 -2 96 -3 -10
13:30 NE 14 gust 20 Light Snow 3 100.8 -2 95 -3 -9
 
Map of Atlantic - Newfoundland marine weather areas Southwestern Grand Banks - 44138 Banquereau - 44139 Tail of the Bank - 44140 Nickerson Bank - 44251 Northeast Burgeo Bank - 44255 Blanc-Sablon Airport Cap Whittle Chevery Natashquan Airport Heath Point Miscou Island Grand Étang Ingonish Beach North Mountain St.Paul Island J.A. Douglas McCurdy Sydney Airport Charlottetown Airport East Point North Cape Argentia Bonavista Burgeo Cape Race Corner Brook Daniel's Harbour Englee Ferolle Point La Scie Port aux Basques Rocky Harbour Sagona Island St. Anthony Airport St. John's Int'l Airport St. Lawrence Stephenville Airport Twillingate Winterland Wreckhouse Cartwright Airport Mary's Harbour Grates Cove Pool's Island Marticot Island Long Pond Îles de la Madeleine Airport
Legend: buoyBuoy land stationLand Station